Time;durP1;ratioP1;P1;durP2;ratioP2;P2;SDS_P1;SDS_P2;PMS_P1;PMS_P2;Temp;Humidity;BMP_temperature;BMP_pressure;BME280_temperature;BME280_humidity;BME280_pressure;Samples;Min_cycle;Max_cycle;Signal;HPM_P1;HPM_P2
2021/07/13 00:09:57;;;;;;;3.30;0.60;;;23.00;31.50;;;;;;20234723;28;81059;-71
2021/07/13 00:19:59;;;;;;;5.18;0.40;;;22.90;31.90;;;;;;20225947;28;81794;-70
2021/07/13 00:30:00;;;;;;;1.33;0.40;;;22.70;32.30;;;;;;20266369;28;80151;-70
2021/07/13 00:40:07;;;;;;;1.85;0.30;;;22.50;32.70;;;;;;20241069;28;81433;-71
2021/07/13 00:50:10;;;;;;;1.55;0.30;;;22.50;33.20;;;;;;20231543;28;81909;-71
2021/07/13 01:00:15;;;;;;;2.58;0.40;;;22.40;34.50;;;;;;20242880;28;81914;-71
2021/07/13 01:10:44;;;;;;;0.47;0.30;;;22.20;35.80;;;;;;20262066;28;83424;-70
2021/07/13 01:21:06;;;;;;;3.78;0.60;;;22.00;36.60;;;;;;20199456;28;82117;-70
2021/07/13 01:31:14;;;;;;;1.60;0.30;;;21.80;37.20;;;;;;20236389;28;82487;-70
2021/07/13 01:41:21;;;;;;;5.45;0.40;;;21.60;37.40;;;;;;20246217;28;80156;-70
2021/07/13 01:51:38;;;;;;;1.55;0.20;;;21.50;37.40;;;;;;20237589;28;80522;-70
2021/07/13 02:01:53;;;;;;;2.40;0.37;;;21.30;37.50;;;;;;20215209;28;81441;-70
2021/07/13 02:11:57;;;;;;;2.85;0.60;;;21.20;37.50;;;;;;20215530;28;82698;-70
2021/07/13 02:22:00;;;;;;;1.35;0.20;;;20.90;37.70;;;;;;20241762;28;81775;-70
2021/07/13 02:32:18;;;;;;;2.30;0.10;;;20.80;37.60;;;;;;20220834;28;81825;-71
2021/07/13 02:42:22;;;;;;;0.88;0.22;;;20.70;37.30;;;;;;20216691;28;81892;-70
2021/07/13 02:52:29;;;;;;;2.78;0.30;;;20.60;37.30;;;;;;20214698;28;80769;-71
2021/07/13 03:02:32;;;;;;;1.67;0.40;;;20.60;37.30;;;;;;20212079;28;80604;-71
2021/07/13 03:12:35;;;;;;;1.02;0.30;;;20.50;37.50;;;;;;20231691;28;80814;-72
2021/07/13 03:22:48;;;;;;;1.83;0.20;;;20.40;37.70;;;;;;20257417;28;81422;-72
2021/07/13 03:33:01;;;;;;;1.48;0.65;;;20.40;37.90;;;;;;20234006;28;81062;-72
2021/07/13 03:43:28;;;;;;;1.40;0.38;;;20.20;38.10;;;;;;20233105;28;80738;-71
2021/07/13 03:53:49;;;;;;;1.35;0.40;;;20.10;38.30;;;;;;20217200;28;80222;-71
2021/07/13 04:04:08;;;;;;;2.55;0.57;;;20.00;38.60;;;;;;20256700;28;81721;-71
2021/07/13 04:14:16;;;;;;;1.13;0.38;;;19.90;39.00;;;;;;20263787;28;80645;-71
2021/07/13 04:24:29;;;;;;;5.00;0.80;;;19.80;39.30;;;;;;20246377;28;81375;-71
2021/07/13 04:34:39;;;;;;;1.90;0.40;;;19.70;39.50;;;;;;20247662;28;81078;-71
2021/07/13 04:44:42;;;;;;;1.30;0.40;;;19.70;39.40;;;;;;20247877;28;81922;-71
2021/07/13 04:54:47;;;;;;;2.75;0.30;;;19.60;39.60;;;;;;20228490;28;80662;-72
2021/07/13 05:04:52;;;;;;;2.90;0.80;;;19.50;39.60;;;;;;20202388;28;80701;-71
2021/07/13 05:14:55;;;;;;;2.85;0.60;;;19.50;39.70;;;;;;20252065;28;81904;-72
2021/07/13 05:24:57;;;;;;;1.23;0.65;;;19.40;39.80;;;;;;20206720;28;80678;-71
2021/07/13 05:34:59;;;;;;;3.07;0.90;;;19.30;40.00;;;;;;20245615;28;80999;-72
2021/07/13 05:45:04;;;;;;;4.35;0.65;;;19.40;39.90;;;;;;20207406;28;80838;-71
2021/07/13 05:55:08;;;;;;;1.13;0.40;;;19.40;39.70;;;;;;20239541;28;80790;-72
2021/07/13 06:05:10;;;;;;;3.90;0.60;;;19.50;39.40;;;;;;20223621;28;82003;-73
2021/07/13 06:15:14;;;;;;;3.65;0.43;;;19.50;39.20;;;;;;20254414;28;84382;-70
2021/07/13 06:25:16;;;;;;;1.90;0.40;;;19.50;39.10;;;;;;20220255;28;81016;-71
2021/07/13 06:35:19;;;;;;;27.85;16.80;;;19.60;39.50;;;;;;20217412;28;82789;-71
2021/07/13 06:45:21;;;;;;;3.70;0.57;;;19.70;39.30;;;;;;20213362;28;83727;-71
2021/07/13 06:55:22;;;;;;;14.27;7.13;;;19.70;39.20;;;;;;20212152;28;83347;-70
2021/07/13 07:05:25;;;;;;;;;;;19.80;38.50;;;;;;20211289;28;81047;-69
2021/07/13 07:15:29;;;;;;;4.00;1.10;;;19.90;38.10;;;;;;20212183;28;79930;-68
2021/07/13 07:25:31;;;;;;;2.50;0.90;;;19.90;37.90;;;;;;20242079;28;81151;-68
2021/07/13 07:35:35;;;;;;;3.40;0.52;;;20.10;37.40;;;;;;20205861;28;82008;-69
2021/07/13 07:45:38;;;;;;;3.38;0.47;;;20.40;37.40;;;;;;20241639;28;81717;-70
2021/07/13 07:55:40;;;;;;;;;;;20.50;37.20;;;;;;20227558;28;81576;-69
2021/07/13 08:05:43;;;;;;;1.38;0.50;;;20.60;37.10;;;;;;20271681;28;80677;-69
2021/07/13 08:15:46;;;;;;;1.50;0.40;;;20.70;36.40;;;;;;20246569;28;80805;-69
2021/07/13 08:25:48;;;;;;;7.90;3.13;;;20.70;36.60;;;;;;20232587;28;81081;-70
2021/07/13 08:35:51;;;;;;;4.00;0.50;;;20.90;36.00;;;;;;20196766;28;81241;-69
2021/07/13 08:45:55;;;;;;;1.08;0.35;;;21.00;35.80;;;;;;20240832;28;81352;-70
2021/07/13 08:55:57;;;;;;;4.63;0.70;;;21.20;36.10;;;;;;20238809;28;81151;-70
2021/07/13 09:06:00;;;;;;;;;;;21.30;35.50;;;;;;20235184;28;81435;-70
2021/07/13 09:16:06;;;;;;;2.80;0.65;;;21.40;35.10;;;;;;20260103;28;81142;-70
2021/07/13 09:26:10;;;;;;;4.00;0.75;;;21.60;35.10;;;;;;20225248;28;80178;-72
2021/07/13 09:36:16;;;;;;;4.03;0.40;;;21.90;33.80;;;;;;20227435;28;81338;-72
2021/07/13 09:46:28;;;;;;;3.67;0.52;;;22.10;33.60;;;;;;20238038;28;81171;-70
2021/07/13 09:56:44;;;;;;;2.13;1.33;;;22.70;32.70;;;;;;20209364;28;80731;-72
2021/07/13 10:06:49;;;;;;;4.07;0.70;;;23.50;32.70;;;;;;20195267;28;80735;-69
2021/07/13 10:16:52;;;;;;;3.30;0.80;;;24.00;31.10;;;;;;20192369;28;82631;-70
2021/07/13 10:26:59;;;;;;;4.20;1.35;;;24.20;30.70;;;;;;20182909;28;84027;-69
2021/07/13 10:37:25;;;;;;;3.47;0.70;;;24.50;30.20;;;;;;20197760;28;81339;-69
2021/07/13 10:47:32;;;;;;;2.70;1.10;;;25.20;30.50;;;;;;20190452;28;81821;-68
2021/07/13 10:57:34;;;;;;;3.25;0.70;;;25.90;28.50;;;;;;20212229;28;80768;-68
2021/07/13 11:07:40;;;;;;;3.70;0.70;;;26.20;27.90;;;;;;20208127;28;81119;-68
2021/07/13 11:17:41;;;;;;;8.63;1.63;;;27.40;26.70;;;;;;20216546;28;80890;-69
2021/07/13 11:27:44;;;;;;;2.00;0.80;;;30.70;24.30;;;;;;20216282;28;81107;-69
2021/07/13 11:37:56;;;;;;;3.00;0.77;;;35.90;19.80;;;;;;20215161;28;81356;-70
2021/07/13 11:48:02;;;;;;;4.13;1.20;;;36.40;19.20;;;;;;20184785;28;81708;-68
2021/07/13 11:58:04;;;;;;;3.13;1.15;;;37.50;18.20;;;;;;20211137;28;82754;-66
2021/07/13 12:08:06;;;;;;;2.92;0.93;;;38.40;17.80;;;;;;20225694;28;80677;-69
2021/07/13 12:18:09;;;;;;;1.67;1.08;;;38.20;17.70;;;;;;20218116;28;80867;-69
2021/07/13 12:28:11;;;;;;;2.05;0.98;;;37.70;18.00;;;;;;20239630;28;81796;-69
2021/07/13 12:38:14;;;;;;;5.53;1.20;;;39.10;17.20;;;;;;20225326;28;81209;-70
2021/07/13 12:48:29;;;;;;;18.15;6.07;;;41.50;15.60;;;;;;20203241;28;80636;-72
2021/07/13 12:58:31;;;;;;;8.43;3.15;;;39.60;18.50;;;;;;20215071;28;81597;-72
2021/07/13 13:08:36;;;;;;;25.63;5.72;;;40.00;17.10;;;;;;20215022;28;81926;-72
2021/07/13 13:18:39;;;;;;;30.30;7.07;;;42.10;16.00;;;;;;20176387;28;81675;-72
2021/07/13 13:28:42;;;;;;;23.73;6.35;;;43.70;15.20;;;;;;20188186;28;81974;-70
2021/07/13 13:38:47;;;;;;;25.88;5.75;;;43.90;15.50;;;;;;20218647;28;84100;-70
2021/07/13 13:48:49;;;;;;;8.02;2.28;;;43.90;15.90;;;;;;20223191;28;81894;-69
2021/07/13 13:58:52;;;;;;;49.53;8.07;;;37.90;17.90;;;;;;20245545;28;80661;-68
2021/07/13 14:08:53;;;;;;;27.67;3.45;;;33.90;26.30;;;;;;20215540;28;82256;-70
2021/07/13 14:18:55;;;;;;;23.98;8.68;;;31.60;24.80;;;;;;20192515;28;80200;-70
2021/07/13 14:28:57;;;;;;;32.38;7.82;;;31.10;25.50;;;;;;20204271;28;80292;-70
2021/07/13 14:38:59;;;;;;;40.85;9.38;;;30.50;25.70;;;;;;20200942;28;82583;-70
2021/07/13 14:49:02;;;;;;;40.22;8.30;;;30.50;28.70;;;;;;20194839;28;81096;-70
2021/07/13 14:59:04;;;;;;;46.80;8.13;;;30.20;27.60;;;;;;20190851;28;80792;-70
2021/07/13 15:09:05;;;;;;;3.15;0.88;;;29.60;30.00;;;;;;20250799;28;81020;-70
2021/07/13 15:19:08;;;;;;;10.25;1.17;;;29.60;26.40;;;;;;20204862;28;81767;-69
2021/07/13 15:29:10;;;;;;;12.60;2.65;;;30.20;25.20;;;;;;20202778;28;81899;-73
2021/07/13 15:39:13;;;;;;;4.85;1.77;;;30.20;26.20;;;;;;20226749;28;80800;-74
2021/07/13 15:49:15;;;;;;;34.80;7.18;;;29.90;26.30;;;;;;20221381;28;81044;-74
2021/07/13 15:59:16;;;;;;;15.57;3.33;;;29.10;29.30;;;;;;20213196;28;81886;-71
2021/07/13 16:09:19;;;;;;;29.63;6.25;;;28.10;28.90;;;;;;20254316;28;80576;-72
2021/07/13 16:19:21;;;;;;;27.35;4.47;;;28.00;31.20;;;;;;20215647;28;81631;-70
2021/07/13 16:29:22;;;;;;;25.15;4.57;;;27.70;34.10;;;;;;20239013;28;81298;-71
2021/07/13 16:39:24;;;;;;;54.00;9.98;;;27.60;32.50;;;;;;20215498;28;80678;-72
2021/07/13 16:49:26;;;;;;;29.88;6.60;;;27.70;34.90;;;;;;20212074;28;84504;-71
2021/07/13 16:59:29;;;;;;;26.90;7.05;;;27.50;30.90;;;;;;20233334;28;83415;-71
2021/07/13 17:09:31;;;;;;;28.75;7.25;;;27.40;30.90;;;;;;20230970;28;81301;-73
2021/07/13 17:19:32;;;;;;;11.30;6.03;;;27.80;30.20;;;;;;20210149;28;80662;-73
2021/07/13 17:29:35;;;;;;;4.45;1.15;;;28.00;28.30;;;;;;20241006;28;81150;-72
2021/07/13 17:39:38;;;;;;;3.30;1.42;;;28.00;25.90;;;;;;20235470;28;81025;-73
2021/07/13 17:49:40;;;;;;;1.65;0.98;;;28.40;25.90;;;;;;20230991;28;81125;-72
2021/07/13 17:59:42;;;;;;;6.18;1.98;;;28.20;25.10;;;;;;20229360;28;80711;-73
2021/07/13 18:09:43;;;;;;;1.40;0.70;;;28.20;25.90;;;;;;20226058;28;80192;-76
2021/07/13 18:19:45;;;;;;;4.03;1.38;;;28.10;25.20;;;;;;20222569;28;80938;-71
2021/07/13 18:29:47;;;;;;;9.43;1.20;;;28.00;26.00;;;;;;20190012;28;80740;-72
2021/07/13 18:39:49;;;;;;;5.05;3.05;;;27.90;26.10;;;;;;20196908;28;80646;-72
2021/07/13 18:49:51;;;;;;;5.30;1.70;;;27.70;26.60;;;;;;20212497;28;80784;-73
2021/07/13 18:59:53;;;;;;;7.45;2.47;;;27.50;26.40;;;;;;20201023;28;80784;-72
2021/07/13 19:09:55;;;;;;;5.13;1.63;;;27.20;27.10;;;;;;20228249;28;81539;-73
2021/07/13 19:19:56;;;;;;;3.08;0.60;;;27.00;26.70;;;;;;20206960;28;81889;-74
2021/07/13 19:29:59;;;;;;;14.20;8.63;;;25.90;42.40;;;;;;20197420;28;81477;-73
2021/07/13 19:40:09;;;;;;;3.88;2.00;;;25.20;42.40;;;;;;20229494;28;81937;-73
2021/07/13 19:50:13;;;;;;;8.48;3.83;;;25.20;40.60;;;;;;20220889;28;81187;-72
2021/07/13 20:00:16;;;;;;;6.70;1.25;;;25.20;37.20;;;;;;20237460;28;81152;-71
2021/07/13 20:10:18;;;;;;;9.20;3.55;;;25.40;34.20;;;;;;20224564;28;80559;-71
2021/07/13 20:20:19;;;;;;;7.00;1.45;;;25.40;32.10;;;;;;20239126;28;81636;-72
2021/07/13 20:30:21;;;;;;;6.28;1.85;;;25.50;29.80;;;;;;20204584;28;80691;-72
2021/07/13 20:40:23;;;;;;;5.40;1.27;;;25.50;30.30;;;;;;20232185;28;81046;-71
